Lusk, Wyoming
Current Conditions -  °F | °C
As of 9:35 PM on Tuesday 21 Oct 2014 (Local Time) from KGUR Reporting Station
Broken Clouds Broken Clouds  
Wind Chill: 69°   Ceiling: 12000
Heat Index: 69°   Visibility: 10mi
Dew Point: 42°   Wind: 16mph
Humidity: 38%   Direction: 290°WNW
Pressure: 29.92"   Gusts: 22mph
Location:  42.76°N, 104.45°W
Report Text: KGUR 220335Z AUTO 29014G19KT 10SM BKN120 21/06 A2992 RMK AO2 T02050056 PWINO
Loading
Personal Weather Stations






























Interactive Weather Map
Tropical Storm Tracking
New forecast layout! Learn more

10-Day Weather Forecast

Advertisements
Track Severe Weather on mobile